createdAt,value
2022-08-12T00:00:34.408Z,9.25
2022-08-12T00:03:20.817Z,9.25
2022-08-12T00:06:08.703Z,10.00
2022-08-12T00:08:56.879Z,9.85
2022-08-12T00:11:43.495Z,9.00
2022-08-12T00:14:29.362Z,9.13
2022-08-12T00:17:14.774Z,9.50
2022-08-12T00:20:00.045Z,9.35
2022-08-12T00:22:46.926Z,9.40
2022-08-12T00:26:21.101Z,9.37
2022-08-12T00:29:00.417Z,9.00
2022-08-12T00:31:45.208Z,8.65
2022-08-12T00:34:35.412Z,8.90
2022-08-12T00:37:21.248Z,9.43
2022-08-12T00:40:11.512Z,8.85
2022-08-12T00:42:41.271Z,9.25
2022-08-12T00:45:09.516Z,9.90
2022-08-12T00:47:37.649Z,9.27
2022-08-12T00:50:06.111Z,9.48
2022-08-12T00:52:34.818Z,9.40
2022-08-12T00:55:03.946Z,9.10
2022-08-12T00:57:37.165Z,9.32
2022-08-12T01:00:10.881Z,9.60
2022-08-12T01:02:40.846Z,9.02
2022-08-12T01:05:30.783Z,8.77
2022-08-12T01:08:16.217Z,8.55
2022-08-12T01:11:03.640Z,9.00
2022-08-12T01:13:32.809Z,9.40
2022-08-12T01:16:02.234Z,9.98
2022-08-12T01:18:31.158Z,9.17
2022-08-12T01:21:01.036Z,9.60
2022-08-12T01:23:27.535Z,9.40
2022-08-12T01:25:56.595Z,9.20
2022-08-12T01:28:26.796Z,9.63
2022-08-12T01:30:54.403Z,9.45
2022-08-12T01:33:22.223Z,8.82
2022-08-12T01:35:57.933Z,9.40
2022-08-12T01:38:36.224Z,8.85
2022-08-12T01:41:04.150Z,9.40
2022-08-12T01:43:31.924Z,9.40
2022-08-12T01:46:09.434Z,9.80
2022-08-12T01:49:02.922Z,8.98
2022-08-12T01:52:16.370Z,8.88
2022-08-12T01:54:31.823Z,9.48
2022-08-12T01:57:59.467Z,9.55
2022-08-12T02:00:13.718Z,9.38
2022-08-12T02:03:03.914Z,9.48
2022-08-12T02:05:58.405Z,10.00
2022-08-12T02:08:46.507Z,9.35
2022-08-12T02:11:26.243Z,9.50
2022-08-12T02:14:06.466Z,9.48
2022-08-12T02:19:30.105Z,9.23
2022-08-12T02:22:35.764Z,9.38
2022-08-12T02:25:10.418Z,9.90
2022-08-12T02:27:46.426Z,9.23
2022-08-12T02:30:15.910Z,9.07
2022-08-12T02:32:44.642Z,9.55
2022-08-12T02:35:15.188Z,9.32
2022-08-12T02:37:43.254Z,9.70
2022-08-12T02:40:12.409Z,10.00
2022-08-12T02:42:54.983Z,9.70
2022-08-12T02:45:33.487Z,10.07
2022-08-12T02:48:06.436Z,9.93
2022-08-12T02:50:36.755Z,9.43
2022-08-12T02:55:34.455Z,9.32
2022-08-12T02:58:08.962Z,9.98
2022-08-12T03:00:40.102Z,9.32
2022-08-12T03:03:10.057Z,9.50
2022-08-12T03:05:45.261Z,9.40
2022-08-12T03:08:25.725Z,9.63
2022-08-12T03:11:11.721Z,9.90
2022-08-12T03:13:42.316Z,10.05
2022-08-12T03:16:09.033Z,9.18
2022-08-12T03:18:35.819Z,9.77
2022-08-12T03:21:02.788Z,9.88
2022-08-12T03:23:31.352Z,9.70
2022-08-12T03:26:02.883Z,9.68
2022-08-12T03:28:51.829Z,9.30
2022-08-12T03:31:21.880Z,9.80
2022-08-12T03:34:02.107Z,10.00
2022-08-12T03:36:35.869Z,9.88
2022-08-12T03:39:18.601Z,9.57
2022-08-12T03:41:58.123Z,10.10
2022-08-12T03:44:56.438Z,10.30
2022-08-12T03:47:49.478Z,10.20
2022-08-12T03:50:36.433Z,10.43
2022-08-12T03:53:26.348Z,10.80
2022-08-12T03:56:13.247Z,11.60
2022-08-12T03:58:58.991Z,10.80
2022-08-12T04:01:26.921Z,10.68
2022-08-12T04:03:54.728Z,10.65
2022-08-12T04:06:35.624Z,11.18
2022-08-12T04:09:16.542Z,10.48
2022-08-12T04:12:03.773Z,10.70
2022-08-12T04:14:30.779Z,10.40
2022-08-12T04:16:57.843Z,10.93
2022-08-12T04:19:26.154Z,11.13
2022-08-12T04:22:01.953Z,11.07
2022-08-12T04:24:31.903Z,10.77
2022-08-12T04:26:58.413Z,10.73
2022-08-12T04:30:16.475Z,11.10
2022-08-12T04:32:13.892Z,10.73
2022-08-12T04:34:43.676Z,10.60
2022-08-12T04:37:12.077Z,11.25
2022-08-12T04:39:40.058Z,10.80
2022-08-12T04:42:06.771Z,10.93
2022-08-12T04:44:33.268Z,10.85
2022-08-12T04:47:00.138Z,11.85
2022-08-12T04:49:27.822Z,10.95
2022-08-12T04:51:59.198Z,10.57
2022-08-12T04:54:27.393Z,11.32
2022-08-12T04:57:04.402Z,10.98
2022-08-12T04:59:46.760Z,11.05
2022-08-12T05:02:21.652Z,11.05
2022-08-12T05:04:51.652Z,11.57
2022-08-12T05:07:18.884Z,11.30
2022-08-12T05:10:02.074Z,11.32
2022-08-12T05:12:34.672Z,10.70
2022-08-12T05:15:01.294Z,12.02
2022-08-12T05:17:28.315Z,11.52
2022-08-12T05:19:57.194Z,11.40
2022-08-12T05:22:26.096Z,11.38
2022-08-12T05:24:52.730Z,11.68
2022-08-12T05:27:19.143Z,11.48
2022-08-12T05:30:06.929Z,11.15
2022-08-12T05:32:35.456Z,11.32
2022-08-12T05:35:06.797Z,11.10
2022-08-12T05:37:35.518Z,11.35
2022-08-12T05:40:10.053Z,10.75
2022-08-12T05:42:37.997Z,10.88
2022-08-12T05:45:05.270Z,10.60
2022-08-12T05:47:53.105Z,10.65
2022-08-12T05:50:19.644Z,11.00
2022-08-12T05:52:46.086Z,11.35
2022-08-12T05:55:15.104Z,11.20
2022-08-12T05:57:41.522Z,11.40
2022-08-12T06:00:08.535Z,11.15
2022-08-12T06:02:35.039Z,10.93
2022-08-12T06:05:02.405Z,10.75
2022-08-12T06:08:00.840Z,10.63
2022-08-12T06:10:31.600Z,11.00
2022-08-12T06:12:58.870Z,10.80
2022-08-12T06:15:25.316Z,10.77
2022-08-12T06:17:51.731Z,10.18
2022-08-12T06:20:22.722Z,10.38
2022-08-12T06:22:56.548Z,10.30
2022-08-12T06:25:23.336Z,10.52
2022-08-12T06:28:07.903Z,10.32
2022-08-12T06:30:38.679Z,10.60
2022-08-12T06:33:11.692Z,10.50
2022-08-12T06:35:50.200Z,11.52
2022-08-12T06:38:25.244Z,10.50
2022-08-12T06:41:16.355Z,11.02
2022-08-12T06:44:04.484Z,10.60
2022-08-12T06:46:31.325Z,10.75
2022-08-12T06:48:59.328Z,11.38
2022-08-12T06:51:31.047Z,10.60
2022-08-12T06:53:59.129Z,10.77
2022-08-12T06:56:45.986Z,10.23
2022-08-12T06:59:14.120Z,10.82
2022-08-12T07:01:40.758Z,10.45
2022-08-12T07:04:35.680Z,10.48
2022-08-12T07:07:05.416Z,10.27
2022-08-12T07:10:06.982Z,10.10
2022-08-12T07:12:19.912Z,10.40
2022-08-12T07:14:51.531Z,10.48
2022-08-12T07:17:18.508Z,10.18
2022-08-12T07:19:46.771Z,10.15
2022-08-12T07:22:15.446Z,9.45
2022-08-12T07:24:42.265Z,9.65
2022-08-12T07:27:08.811Z,9.77
2022-08-12T07:30:02.578Z,9.52
2022-08-12T07:32:24.502Z,9.32
2022-08-12T07:34:54.530Z,9.50
2022-08-12T07:37:21.429Z,9.45
2022-08-12T07:39:50.116Z,9.55
2022-08-12T07:42:25.125Z,9.27
2022-08-12T07:44:53.334Z,9.70
2022-08-12T07:47:20.041Z,9.32
2022-08-12T07:50:05.148Z,9.35
2022-08-12T07:52:32.725Z,9.23
2022-08-12T07:54:59.954Z,9.60
2022-08-12T07:57:26.459Z,9.32
2022-08-12T07:59:55.947Z,11.38
2022-08-12T08:02:26.907Z,9.45
2022-08-12T08:04:57.182Z,9.07
2022-08-12T08:07:30.613Z,9.50
2022-08-12T08:09:59.407Z,9.60
2022-08-12T08:12:46.770Z,9.70
2022-08-12T08:15:14.893Z,9.15
2022-08-12T08:17:51.941Z,9.77
2022-08-12T08:20:28.246Z,9.07
2022-08-12T08:22:56.494Z,9.55
2022-08-12T08:25:36.529Z,9.23
2022-08-12T08:28:07.111Z,9.30
2022-08-12T08:30:34.958Z,9.43
2022-08-12T08:33:01.361Z,8.45
2022-08-12T08:35:46.332Z,10.10
2022-08-12T08:38:18.628Z,8.98
2022-08-12T08:42:18.740Z,9.00
2022-08-12T08:44:04.541Z,8.70
2022-08-12T08:46:33.008Z,8.50
2022-08-12T08:49:01.414Z,9.13
2022-08-12T08:51:27.909Z,9.95
2022-08-12T08:53:54.321Z,9.65
2022-08-12T08:56:21.795Z,8.95
2022-08-12T08:58:49.527Z,9.63
2022-08-12T09:01:22.417Z,8.63
2022-08-12T09:05:07.789Z,9.02
2022-08-12T09:06:37.836Z,9.40
2022-08-12T09:09:13.072Z,9.65
2022-08-12T09:14:47.080Z,8.52
2022-08-12T09:17:21.260Z,9.13
2022-08-12T09:19:57.265Z,9.00
2022-08-12T09:22:29.279Z,8.80
2022-08-12T09:24:56.143Z,8.52
2022-08-12T09:30:15.794Z,9.10
2022-08-12T09:35:43.094Z,9.25
2022-08-12T09:38:28.500Z,7.95
2022-08-12T09:42:08.603Z,8.40
2022-08-12T09:44:05.023Z,8.23
2022-08-12T09:46:34.487Z,8.32
2022-08-12T09:49:04.128Z,7.82
2022-08-12T09:51:43.745Z,7.73
2022-08-12T09:54:34.137Z,7.53
2022-08-12T09:58:53.871Z,7.32
2022-08-12T10:00:17.147Z,7.90
2022-08-12T10:03:32.351Z,7.70
2022-08-12T10:06:19.275Z,8.10
2022-08-12T10:08:52.499Z,7.90
2022-08-12T10:12:09.993Z,7.88
2022-08-12T10:14:34.519Z,7.70
2022-08-12T10:17:02.633Z,8.20
2022-08-12T10:19:36.140Z,7.50
2022-08-12T10:22:06.033Z,7.15
2022-08-12T10:25:04.566Z,7.18
2022-08-12T10:28:05.822Z,7.55
2022-08-12T10:30:39.913Z,7.38
2022-08-12T10:33:18.285Z,7.60
2022-08-12T10:35:45.780Z,7.80
2022-08-12T10:38:35.041Z,7.38
2022-08-12T10:41:22.514Z,7.40
2022-08-12T10:44:12.482Z,7.28
2022-08-12T10:46:45.860Z,7.05
2022-08-12T10:50:02.761Z,7.35
2022-08-12T10:52:33.434Z,8.15
2022-08-12T10:54:51.460Z,7.50
2022-08-12T10:58:15.664Z,7.55
2022-08-12T11:00:30.755Z,7.75
2022-08-12T11:04:24.246Z,7.70
2022-08-12T11:07:05.237Z,7.60
2022-08-12T11:08:37.583Z,7.80
2022-08-12T11:11:13.274Z,7.60
2022-08-12T11:13:46.575Z,7.40
2022-08-12T11:16:21.841Z,7.30
2022-08-12T11:18:55.582Z,7.43
2022-08-12T11:21:56.437Z,7.85
2022-08-12T11:24:30.010Z,7.50
2022-08-12T11:30:01.642Z,7.40
2022-08-12T11:32:16.596Z,7.28
2022-08-12T11:34:53.506Z,7.72
2022-08-12T11:37:24.776Z,7.50
2022-08-12T11:42:37.366Z,7.55
2022-08-12T11:45:11.093Z,7.97
2022-08-12T11:47:40.415Z,7.30
2022-08-12T11:50:07.764Z,8.00
2022-08-12T11:52:55.576Z,7.97
2022-08-12T11:55:23.131Z,7.22
2022-08-12T11:58:44.056Z,7.38
2022-08-12T12:03:43.742Z,7.47
2022-08-12T12:06:17.908Z,6.97
2022-08-12T12:08:50.885Z,6.90
2022-08-12T12:11:19.636Z,7.00
2022-08-12T12:14:08.228Z,7.10
2022-08-12T12:16:33.567Z,7.50
2022-08-12T12:19:05.466Z,7.18
2022-08-12T12:21:48.130Z,7.05
2022-08-12T12:24:21.669Z,7.22
2022-08-12T12:27:00.441Z,7.03
2022-08-12T12:30:18.044Z,7.28
2022-08-12T12:32:19.512Z,6.93
2022-08-12T12:35:14.530Z,6.68
2022-08-12T12:37:59.026Z,6.38
2022-08-12T12:40:32.706Z,7.00
2022-08-12T12:43:05.290Z,6.88
2022-08-12T12:45:35.446Z,6.43
2022-08-12T12:48:07.915Z,7.00
2022-08-12T12:50:51.804Z,6.43
2022-08-12T12:54:06.305Z,7.13
2022-08-12T12:56:20.867Z,7.07
2022-08-12T12:59:00.909Z,7.30
2022-08-12T13:01:30.968Z,6.93
2022-08-12T13:04:01.862Z,6.68
2022-08-12T13:06:31.455Z,7.35
2022-08-12T13:11:41.472Z,6.80
2022-08-12T13:14:13.045Z,7.32
2022-08-12T13:16:56.484Z,6.53
2022-08-12T13:19:25.428Z,7.53
2022-08-12T13:22:19.963Z,7.35
2022-08-12T13:24:54.641Z,6.90
2022-08-12T13:27:23.370Z,6.75
2022-08-12T13:30:01.992Z,6.90
2022-08-12T13:32:31.313Z,7.10
2022-08-12T13:35:04.674Z,6.80
2022-08-12T13:37:56.585Z,6.57
2022-08-12T13:40:25.013Z,6.93
2022-08-12T13:42:53.221Z,6.72
2022-08-12T13:45:19.759Z,7.30
2022-08-12T13:48:00.265Z,7.38
2022-08-12T13:50:38.319Z,7.07
2022-08-12T13:53:23.893Z,7.60
2022-08-12T13:55:59.606Z,7.50
2022-08-12T13:58:28.536Z,7.45
2022-08-12T14:00:58.128Z,7.32
2022-08-12T14:03:28.691Z,7.30
2022-08-12T14:06:15.406Z,7.10
2022-08-12T14:08:42.896Z,7.15
2022-08-12T14:11:09.646Z,7.05
2022-08-12T14:14:03.976Z,6.38
2022-08-12T14:16:37.347Z,7.13
2022-08-12T14:19:22.049Z,7.13
2022-08-12T14:21:59.526Z,6.90
2022-08-12T14:24:27.371Z,7.30
2022-08-12T14:26:58.866Z,7.20
2022-08-12T14:29:56.251Z,6.85
2022-08-12T14:32:17.581Z,7.25
2022-08-12T14:34:45.974Z,7.50
2022-08-12T14:37:13.067Z,6.85
2022-08-12T14:40:00.461Z,7.00
2022-08-12T14:42:27.942Z,6.63
2022-08-12T14:44:59.405Z,6.32
2022-08-12T14:47:26.756Z,6.70
2022-08-12T14:50:33.763Z,6.82
2022-08-12T14:54:33.659Z,6.88
2022-08-12T14:58:20.353Z,7.15
2022-08-12T15:01:06.939Z,6.90
2022-08-12T15:03:52.036Z,6.70
2022-08-12T15:06:39.232Z,7.00
2022-08-12T15:09:09.241Z,6.90
2022-08-12T15:11:54.629Z,6.70
2022-08-12T15:14:25.328Z,6.80
2022-08-12T15:16:52.314Z,7.13
2022-08-12T15:20:11.804Z,6.95
2022-08-12T15:22:37.234Z,7.00
2022-08-12T15:24:53.629Z,6.80
2022-08-12T15:27:22.349Z,6.90
2022-08-12T15:29:58.133Z,6.50
2022-08-12T15:32:31.816Z,6.93
2022-08-12T15:35:00.525Z,6.93
2022-08-12T15:37:58.955Z,6.82
2022-08-12T15:40:14.089Z,7.00
2022-08-12T15:42:40.673Z,7.05
2022-08-12T15:45:23.785Z,7.03
2022-08-12T15:47:53.143Z,7.05
2022-08-12T15:50:32.361Z,7.65
2022-08-12T15:53:14.230Z,7.40
2022-08-12T15:55:45.891Z,7.80
2022-08-12T15:58:16.921Z,8.07
2022-08-12T16:00:43.856Z,8.98
2022-08-12T16:03:13.517Z,7.72
2022-08-12T16:06:11.844Z,7.07
2022-08-12T16:08:29.817Z,7.30
2022-08-12T16:10:56.915Z,12.52
2022-08-12T16:13:34.255Z,6.75
2022-08-12T16:16:03.466Z,7.10
2022-08-12T16:18:33.372Z,6.95
2022-08-12T16:21:00.404Z,7.05
2022-08-12T16:23:52.124Z,7.10
2022-08-12T16:26:15.137Z,7.20
2022-08-12T16:28:47.420Z,7.18
2022-08-12T16:31:22.674Z,7.07
2022-08-12T16:33:59.308Z,7.00
2022-08-12T16:36:29.488Z,10.57
2022-08-12T16:38:56.006Z,6.90
2022-08-12T16:41:23.044Z,6.93
2022-08-12T16:43:50.480Z,6.68
2022-08-12T16:46:32.452Z,7.28
2022-08-12T16:49:09.325Z,7.50
2022-08-12T16:51:41.920Z,7.10
2022-08-12T16:54:14.133Z,7.57
2022-08-12T16:56:54.734Z,7.40
2022-08-12T16:59:25.486Z,7.25
2022-08-12T17:01:53.798Z,7.13
2022-08-12T17:04:21.010Z,7.53
2022-08-12T17:06:52.603Z,7.38
2022-08-12T17:09:19.714Z,7.53
2022-08-12T17:11:49.587Z,7.72
2022-08-12T17:14:23.049Z,7.10
2022-08-12T17:16:51.788Z,7.70
2022-08-12T17:19:20.494Z,7.90
2022-08-12T17:22:08.818Z,7.55
2022-08-12T17:24:39.969Z,7.55
2022-08-12T17:27:16.456Z,7.00
2022-08-12T17:30:03.280Z,7.30
2022-08-12T17:32:32.873Z,7.30
2022-08-12T17:35:18.694Z,7.43
2022-08-12T17:37:48.376Z,7.30
2022-08-12T17:40:35.255Z,8.10
2022-08-12T17:43:51.990Z,7.30
2022-08-12T17:45:56.168Z,7.20
2022-08-12T17:48:34.399Z,7.60
2022-08-12T17:51:06.846Z,8.05
2022-08-12T17:53:43.430Z,8.13
2022-08-12T17:56:24.027Z,8.07
2022-08-12T17:58:58.172Z,8.45
2022-08-12T18:01:25.527Z,8.60
2022-08-12T18:04:21.512Z,8.13
2022-08-12T18:06:50.455Z,7.70
2022-08-12T18:09:17.705Z,7.95
2022-08-12T18:12:07.739Z,7.90
2022-08-12T18:14:36.877Z,7.80
2022-08-12T18:17:08.503Z,7.90
2022-08-12T18:20:06.134Z,8.23
2022-08-12T18:22:31.753Z,8.32
2022-08-12T18:25:03.722Z,8.38
2022-08-12T18:27:44.832Z,8.70
2022-08-12T18:30:20.742Z,8.90
2022-08-12T18:33:03.397Z,8.30
2022-08-12T18:35:47.134Z,8.38
2022-08-12T18:38:19.937Z,8.98
2022-08-12T18:41:09.803Z,8.20
2022-08-12T18:44:00.100Z,8.68
2022-08-12T18:46:48.745Z,8.63
2022-08-12T18:49:31.844Z,8.02
2022-08-12T18:52:04.385Z,9.15
2022-08-12T18:54:35.156Z,8.80
2022-08-12T18:57:16.110Z,8.52
2022-08-12T19:00:01.582Z,8.65
2022-08-12T19:02:38.904Z,8.93
2022-08-12T19:05:11.365Z,9.30
2022-08-12T19:07:49.404Z,8.77
2022-08-12T19:10:20.545Z,8.98
2022-08-12T19:13:09.404Z,8.85
2022-08-12T19:15:42.268Z,9.02
2022-08-12T19:18:10.958Z,9.30
2022-08-12T19:20:39.306Z,10.02
2022-08-12T19:23:08.230Z,9.40
2022-08-12T19:25:59.769Z,9.75
2022-08-12T19:28:34.685Z,10.00
2022-08-12T19:31:56.827Z,8.85
2022-08-12T19:37:38.613Z,9.20
2022-08-12T19:40:31.121Z,9.45
2022-08-12T19:43:01.566Z,9.98
2022-08-12T19:45:43.653Z,9.73
2022-08-12T19:48:18.145Z,10.20
2022-08-12T19:50:50.497Z,9.77
2022-08-12T19:53:20.165Z,10.35
2022-08-12T19:55:51.834Z,10.45
2022-08-12T19:58:21.129Z,10.02
2022-08-12T20:00:53.602Z,10.50
2022-08-12T20:03:39.114Z,9.90
2022-08-12T20:06:18.344Z,10.45
2022-08-12T20:08:56.532Z,11.57
2022-08-12T20:12:11.624Z,10.98
2022-08-12T20:14:18.595Z,10.35
2022-08-12T20:16:57.777Z,10.23
2022-08-12T20:20:01.603Z,10.13
2022-08-12T20:22:30.008Z,10.18
2022-08-12T20:25:02.016Z,10.05
2022-08-12T20:28:04.525Z,10.40
2022-08-12T20:30:20.221Z,9.73
2022-08-12T20:35:25.213Z,10.63
2022-08-12T20:38:26.612Z,10.07
2022-08-12T20:40:54.324Z,10.13
2022-08-12T20:43:24.102Z,10.35
2022-08-12T20:45:57.474Z,10.18
2022-08-12T20:48:25.483Z,9.82
2022-08-12T20:50:55.210Z,10.45
2022-08-12T20:53:27.801Z,10.50
2022-08-12T20:56:00.369Z,10.57
2022-08-12T20:58:28.094Z,10.43
2022-08-12T21:00:57.405Z,10.98
2022-08-12T21:03:52.731Z,10.65
2022-08-12T21:06:43.642Z,10.52
2022-08-12T21:09:10.406Z,10.77
2022-08-12T21:11:37.197Z,10.60
2022-08-12T21:14:04.512Z,10.45
2022-08-12T21:16:39.014Z,10.23
2022-08-12T21:19:08.154Z,10.60
2022-08-12T21:21:49.794Z,10.32
2022-08-12T21:24:17.711Z,10.52
2022-08-12T21:26:53.270Z,10.07
2022-08-12T21:29:20.317Z,10.18
2022-08-12T21:32:36.696Z,10.40
2022-08-12T21:34:34.037Z,10.15
2022-08-12T21:37:12.881Z,10.50
2022-08-12T21:39:39.970Z,10.32
2022-08-12T21:42:18.626Z,10.18
2022-08-12T21:45:45.337Z,10.75
2022-08-12T21:47:34.390Z,10.55
2022-08-12T21:50:04.218Z,10.30
2022-08-12T21:52:41.204Z,10.20
2022-08-12T21:55:17.891Z,10.18
2022-08-12T21:57:54.529Z,10.55
2022-08-12T22:00:36.798Z,10.57
2022-08-12T22:03:30.376Z,10.35
2022-08-12T22:06:31.003Z,9.70
2022-08-12T22:09:16.437Z,10.55
2022-08-12T22:11:56.227Z,10.85
2022-08-12T22:14:25.676Z,10.93
2022-08-12T22:16:55.751Z,11.05
2022-08-12T22:21:53.280Z,10.63
2022-08-12T22:24:27.214Z,10.68
2022-08-12T22:27:08.278Z,10.05
2022-08-12T22:30:07.199Z,11.25
2022-08-12T22:32:33.985Z,10.65
2022-08-12T22:35:23.078Z,11.00
2022-08-12T22:40:20.309Z,10.97
2022-08-12T22:43:06.308Z,10.70
2022-08-12T22:45:58.762Z,10.50
2022-08-12T22:48:26.497Z,9.70
2022-08-12T22:50:59.137Z,10.13
2022-08-12T22:53:26.237Z,10.20
2022-08-12T22:56:06.674Z,10.77
2022-08-12T22:58:36.548Z,10.43
2022-08-12T23:01:03.967Z,11.07
2022-08-12T23:03:47.925Z,11.00
2022-08-12T23:06:19.733Z,10.82
2022-08-12T23:08:46.646Z,10.23
2022-08-12T23:11:14.445Z,10.57
2022-08-12T23:13:47.213Z,10.13
2022-08-12T23:16:28.455Z,10.95
2022-08-12T23:18:59.885Z,10.23
2022-08-12T23:22:04.362Z,10.93
2022-08-12T23:24:16.773Z,10.63
2022-08-12T23:27:03.437Z,10.13
2022-08-12T23:29:43.028Z,10.80
2022-08-12T23:32:13.469Z,10.40
2022-08-12T23:35:02.570Z,9.87
2022-08-12T23:37:46.664Z,10.32
2022-08-12T23:40:21.152Z,10.15
2022-08-12T23:42:48.809Z,10.70
2022-08-12T23:45:20.767Z,10.65
2022-08-12T23:47:58.382Z,10.75
2022-08-12T23:50:33.433Z,10.68
2022-08-12T23:53:03.260Z,9.95
2022-08-12T23:55:35.789Z,10.57
2022-08-12T23:58:20.693Z,10.57
